Time;durP1;ratioP1;P1;durP2;ratioP2;P2;SDS_P1;SDS_P2;PMS_P1;PMS_P2;Temp;Humidity;BMP_temperature;BMP_pressure;BME280_temperature;BME280_humidity;BME280_pressure;Samples;Min_cycle;Max_cycle;Signal;HPM_P1;HPM_P2
2022/04/19 00:00:44;;;;;;;6.68;4.88;;;;;;;-0.43;100.00;90260.88;5010778;28;20026;-66
2022/04/19 00:03:11;;;;;;;6.47;4.93;;;;;;;-0.40;100.00;90267.41;5012593;28;20399;-66
2022/04/19 00:05:37;;;;;;;4.80;3.75;;;;;;;-0.43;100.00;90260.88;5014511;28;20037;-66
2022/04/19 00:08:06;;;;;;;6.38;4.40;;;;;;;-0.43;100.00;90250.41;5014588;28;20045;-66
2022/04/19 00:10:33;;;;;;;5.95;5.07;;;;;;;-0.43;100.00;90260.88;5014663;28;20113;-66
2022/04/19 00:13:01;;;;;;;5.60;4.32;;;;;;;-0.37;100.00;90259.81;5014554;28;20032;-65
2022/04/19 00:15:28;;;;;;;7.65;4.88;;;;;;;-0.27;100.00;90253.06;5014301;28;20407;-65
2022/04/19 00:18:03;;;;;;;4.20;3.75;;;;;;;-0.25;100.00;90253.56;5014142;28;20053;-65
2022/04/19 00:20:30;;;;;;;5.82;3.75;;;;;;;-0.51;100.00;90240.47;5014238;28;20126;-66
2022/04/19 00:22:57;;;;;;;5.60;4.40;;;;;;;-0.44;100.00;90248.06;5014321;28;20034;-65
2022/04/19 00:25:24;;;;;;;7.25;4.43;;;;;;;-0.49;100.00;90237.59;4996536;28;20474;-66
2022/04/19 00:27:49;;;;;;;10.13;6.28;;;;;;;-0.55;100.00;90233.41;5014437;28;20034;-66
2022/04/19 00:30:15;;;;;;;9.55;6.90;;;;;;;-0.56;100.00;90234.47;5014249;28;20487;-66
2022/04/19 00:32:41;;;;;;;6.95;5.18;;;;;;;-0.53;100.00;90241.78;5014176;28;20088;-66
2022/04/19 00:35:09;;;;;;;5.72;3.60;;;;;;;-0.55;100.00;90236.81;5014059;28;20416;-67
2022/04/19 00:37:35;;;;;;;6.53;5.47;;;;;;;-0.47;100.00;90243.38;5013858;28;20068;-66
2022/04/19 00:40:05;;;;;;;9.27;5.63;;;;;;;-0.69;100.00;90238.34;5014003;28;20037;-66
2022/04/19 00:42:32;;;;;;;8.50;6.07;;;;;;;-0.64;100.00;90243.56;5013928;28;20030;-66
2022/04/19 00:44:59;;;;;;;8.73;6.18;;;;;;;-0.71;100.00;90233.38;5013728;28;20026;-66
2022/04/19 00:47:26;;;;;;;10.88;6.18;;;;;;;-0.75;100.00;90223.72;5013758;28;20125;-66
2022/04/19 00:49:52;;;;;;;13.93;8.88;;;;;;;-0.86;100.00;90224.72;5013811;28;20052;-66
2022/04/19 00:52:18;;;;;;;18.70;9.23;;;;;;;-0.85;100.00;90237.53;5013700;28;20435;-66
2022/04/19 00:54:47;;;;;;;18.17;8.75;;;;;;;-0.86;100.00;90224.72;5013633;28;20068;-66
2022/04/19 00:57:13;;;;;;;11.13;6.60;;;;;;;-0.88;100.00;90221.59;5013658;28;20057;-66
2022/04/19 00:59:39;;;;;;;13.38;7.45;;;;;;;-0.86;100.00;90215.06;4996598;28;20392;-66
2022/04/19 01:02:04;;;;;;;15.27;7.78;;;;;;;-0.95;100.00;90214.00;5013583;28;20026;-66
2022/04/19 01:04:30;;;;;;;16.05;8.73;;;;;;;-0.86;100.00;90214.28;5013473;28;20030;-66
2022/04/19 01:06:57;;;;;;;11.52;7.80;;;;;;;-0.78;100.00;90211.19;5013304;28;20553;-66
2022/04/19 01:09:22;;;;;;;12.25;7.35;;;;;;;-0.72;100.00;90215.38;5013380;28;20507;-66
2022/04/19 01:14:35;;;;;;;8.80;5.70;;;;;;;-0.84;100.00;90212.97;5011990;28;20121;-66
2022/04/19 01:17:01;;;;;;;10.82;6.70;;;;;;;-0.88;100.00;90201.50;5013304;28;20033;-67
2022/04/19 01:19:27;;;;;;;8.85;6.57;;;;;;;-0.83;100.00;90206.72;5013047;28;20054;-66
2022/04/19 01:21:57;;;;;;;9.85;6.60;;;;;;;-0.73;100.00;90219.03;5013269;28;20033;-66
2022/04/19 01:24:23;;;;;;;8.43;5.57;;;;;;;-0.66;100.00;90217.72;5013052;28;20030;-66
2022/04/19 01:26:53;;;;;;;7.70;5.82;;;;;;;-0.64;100.00;90207.00;5013041;28;20109;-66
2022/04/19 01:29:19;;;;;;;6.88;5.15;;;;;;;-0.68;100.00;90211.19;5012938;28;20148;-66
2022/04/19 01:31:45;;;;;;;8.80;5.43;;;;;;;-0.70;100.00;90214.06;5013050;28;20174;-67
2022/04/19 01:34:11;;;;;;;11.65;6.50;;;;;;;-0.73;100.00;90214.56;5012912;28;20037;-67
2022/04/19 01:36:38;;;;;;;11.90;7.55;;;;;;;-0.78;100.00;90201.53;5012893;28;20511;-66
2022/04/19 01:39:09;;;;;;;10.88;6.10;;;;;;;-0.80;100.00;90200.19;5013131;28;20365;-66
2022/04/19 01:41:36;;;;;;;15.82;9.73;;;;;;;-0.77;100.00;90207.53;5012792;28;20064;-66
2022/04/19 01:44:04;;;;;;;19.67;11.10;;;;;;;-0.77;100.00;90199.69;5012918;28;20038;-66
2022/04/19 01:46:31;;;;;;;11.95;7.68;;;;;;;-0.88;100.00;90201.50;5012556;28;20065;-66
2022/04/19 01:48:57;;;;;;;8.65;6.50;;;;;;;-0.91;100.00;90199.41;5012569;28;20400;-67
2022/04/19 01:51:24;;;;;;;15.27;9.38;;;;;;;-0.81;100.00;90201.22;5012633;28;20036;-67
2022/04/19 01:53:50;;;;;;;13.95;8.52;;;;;;;-0.80;100.00;90200.19;5012583;28;20409;-67
2022/04/19 01:56:16;;;;;;;8.23;6.05;;;;;;;-0.86;100.00;90202.00;5012508;28;20034;-67
2022/04/19 01:58:41;;;;;;;8.68;6.60;;;;;;;-0.84;100.00;90204.38;5012462;28;20037;-67
2022/04/19 02:01:08;;;;;;;9.00;6.22;;;;;;;-0.84;100.00;90202.53;5012439;28;20553;-67
2022/04/19 02:03:34;;;;;;;9.23;6.40;;;;;;;-0.79;100.00;90209.59;5012502;28;20789;-66
2022/04/19 02:06:07;;;;;;;9.90;6.55;;;;;;;-0.86;100.00;90209.06;5012236;28;20030;-67
2022/04/19 02:08:32;;;;;;;13.55;9.05;;;;;;;-0.85;100.00;90194.97;5012304;28;20037;-66
2022/04/19 02:11:00;;;;;;;10.07;7.07;;;;;;;-0.78;100.00;90198.13;5012176;28;20435;-66
2022/04/19 02:13:26;;;;;;;9.57;6.38;;;;;;;-0.86;100.00;90203.84;5012220;28;20034;-66
2022/04/19 02:15:52;;;;;;;9.10;6.68;;;;;;;-0.87;100.00;90204.88;5012009;28;20021;-67
2022/04/19 02:18:18;;;;;;;10.10;6.80;;;;;;;-1.03;100.00;90172.75;5012101;28;20036;-66
2022/04/19 02:20:45;;;;;;;10.13;7.07;;;;;;;-0.93;100.00;90194.44;5011897;28;20058;-66
2022/04/19 02:23:13;;;;;;;10.07;7.50;;;;;;;-0.95;100.00;90191.31;5012120;28;20026;-66
2022/04/19 02:25:39;;;;;;;9.95;6.70;;;;;;;-0.85;100.00;90197.56;5165577;22;20057;-70
2022/04/19 02:28:06;;;;;;;14.00;8.35;;;;;;;-0.86;100.00;90188.19;5012224;28;20034;-70
2022/04/19 02:30:32;;;;;;;15.07;9.90;;;;;;;-0.87;100.00;90197.84;5012371;28;20026;-71
2022/04/19 02:32:58;;;;;;;10.32;7.47;;;;;;;-0.84;100.00;90197.31;5012162;28;20034;-71
2022/04/19 02:35:23;;;;;;;9.52;7.32;;;;;;;-0.86;100.00;90193.41;5012258;28;20026;-70
2022/04/19 02:37:53;;;;;;;11.23;7.80;;;;;;;-1.02;100.00;90189.97;5012053;28;20033;-70
2022/04/19 02:40:20;;;;;;;16.65;10.32;;;;;;;-0.93;100.00;90201.50;5012091;28;20081;-70
2022/04/19 02:42:47;;;;;;;11.15;7.75;;;;;;;-0.94;100.00;90205.94;5012008;28;20110;-70
2022/04/19 02:45:13;;;;;;;10.02;7.70;;;;;;;-0.84;100.00;90199.94;5011546;28;20081;-70
2022/04/19 02:47:41;;;;;;;8.65;6.05;;;;;;;-0.71;100.00;90196.81;5011855;28;20034;-70
2022/04/19 02:50:07;;;;;;;9.57;6.78;;;;;;;-0.78;100.00;90201.53;5011811;28;20088;-70
2022/04/19 02:52:32;;;;;;;15.07;10.07;;;;;;;-0.78;100.00;90208.56;5011591;28;20578;-70
2022/04/19 02:54:58;;;;;;;11.35;8.00;;;;;;;-0.86;100.00;90198.63;5011798;28;20109;-70
2022/04/19 02:57:23;;;;;;;8.15;5.90;;;;;;;-0.98;100.00;90202.25;5011858;28;20036;-70
2022/04/19 02:59:49;;;;;;;8.25;6.00;;;;;;;-0.98;100.00;90197.00;5011877;28;20068;-70
2022/04/19 03:02:14;;;;;;;8.63;6.25;;;;;;;-0.96;100.00;90205.38;5011830;28;20030;-70
2022/04/19 03:04:41;;;;;;;11.30;7.30;;;;;;;-0.86;100.00;90212.47;5011707;28;20042;-70
2022/04/19 03:07:06;;;;;;;9.45;7.70;;;;;;;-0.82;100.00;90207.50;5011687;28;20034;-69
2022/04/19 03:09:32;;;;;;;9.13;6.78;;;;;;;-0.84;100.00;90210.38;5011714;28;20526;-69
2022/04/19 03:11:58;;;;;;;11.95;6.43;;;;;;;-0.94;100.00;90213.75;5011914;28;20061;-69
2022/04/19 03:14:25;;;;;;;7.32;5.65;;;;;;;-0.94;100.00;90218.97;5010469;28;20443;-70
2022/04/19 03:16:51;;;;;;;12.57;8.00;;;;;;;-0.84;100.00;90228.66;5010869;28;20066;-69
2022/04/19 03:19:17;;;;;;;8.63;7.00;;;;;;;-0.81;100.00;90229.94;5010657;28;20045;-69
2022/04/19 03:21:43;;;;;;;6.93;5.70;;;;;;;-0.79;100.00;90236.50;5010691;28;20029;-70
2022/04/19 03:29:36;;;;;;;7.57;5.75;;;;;;;-0.94;100.00;90233.84;5011055;28;20455;-69
2022/04/19 03:32:02;;;;;;;7.40;4.75;;;;;;;-0.89;100.00;90244.31;5010675;28;20057;-69
2022/04/19 03:34:28;;;;;;;7.28;5.90;;;;;;;-0.99;100.00;90234.59;5010556;28;20050;-69
2022/04/19 03:36:54;;;;;;;6.50;4.95;;;;;;;-0.92;100.00;90235.16;4992958;28;20030;-68
2022/04/19 03:39:19;;;;;;;5.78;4.80;;;;;;;-0.87;100.00;90249.28;5014430;28;20034;-68
2022/04/19 03:41:45;;;;;;;7.72;5.05;;;;;;;-0.82;100.00;90255.28;5015072;28;20061;-68
2022/04/19 03:44:12;;;;;;;7.30;5.40;;;;;;;-0.80;100.00;90252.41;5014206;28;20479;-68
2022/04/19 03:47:07;;;;;;;7.13;5.45;;;;;;;-0.81;100.00;90248.22;5014317;28;20036;-68
2022/04/19 03:49:26;;;;;;;6.88;5.28;;;;;;;-0.79;100.00;90238.31;5012690;28;20092;-68
2022/04/19 03:51:52;;;;;;;6.75;5.25;;;;;;;-0.77;100.00;90255.31;5015238;28;20040;-68
2022/04/19 03:54:17;;;;;;;7.25;5.18;;;;;;;-0.75;100.00;90257.66;5014975;28;20030;-69
2022/04/19 03:56:43;;;;;;;7.45;5.43;;;;;;;-0.79;100.00;90252.19;5015124;28;20018;-68
2022/04/19 03:59:10;;;;;;;9.25;6.28;;;;;;;-0.80;100.00;90253.19;5015175;28;20120;-68
2022/04/19 04:01:38;;;;;;;7.75;5.95;;;;;;;-0.79;100.00;90248.75;5015102;28;20026;-69
2022/04/19 04:04:04;;;;;;;9.38;6.32;;;;;;;-0.78;100.00;90248.53;5014992;28;20104;-68
2022/04/19 04:06:30;;;;;;;11.30;9.20;;;;;;;-0.73;100.00;90250.34;5014787;28;20037;-68
2022/04/19 04:08:55;;;;;;;66.35;32.47;;;;;;;-0.87;100.00;90254.50;5014846;28;20036;-68
2022/04/19 04:11:21;;;;;;;11.40;7.55;;;;;;;-0.87;100.00;90259.72;5014847;28;20411;-68
2022/04/19 04:13:47;;;;;;;10.57;6.47;;;;;;;-0.99;100.00;90263.31;5014809;28;20087;-68
2022/04/19 04:16:12;;;;;;;10.18;7.45;;;;;;;-0.91;100.00;90275.09;5014689;28;20109;-68
2022/04/19 04:18:39;;;;;;;13.30;8.85;;;;;;;-0.85;100.00;90278.50;5014720;28;20037;-69
2022/04/19 04:21:05;;;;;;;21.30;11.43;;;;;;;-0.77;100.00;90270.19;5014898;28;20038;-69
2022/04/19 04:23:33;;;;;;;14.43;9.75;;;;;;;-0.77;100.00;90278.03;5014593;28;20057;-69
2022/04/19 04:25:58;;;;;;;17.23;10.70;;;;;;;-0.87;100.00;90283.22;5014322;28;20070;-69
2022/04/19 04:28:24;;;;;;;16.40;10.77;;;;;;;-1.00;100.00;90276.63;5014575;28;20038;-68
2022/04/19 04:30:49;;;;;;;10.65;7.15;;;;;;;-1.08;100.00;90257.03;5014469;28;20041;-68
2022/04/19 04:33:15;;;;;;;9.27;6.53;;;;;;;-1.09;100.00;90271.13;5014468;28;20030;-68
2022/04/19 04:35:40;;;;;;;10.23;7.20;;;;;;;-1.05;100.00;90279.22;5014263;28;20105;-69
2022/04/19 04:38:05;;;;;;;10.60;7.22;;;;;;;-1.08;100.00;90275.31;5014214;28;20058;-68
2022/04/19 04:40:31;;;;;;;8.48;6.25;;;;;;;-1.00;100.00;90272.19;5014314;28;20033;-68
2022/04/19 04:42:56;;;;;;;8.00;6.32;;;;;;;-0.79;100.00;90282.69;5014207;28;20096;-69
2022/04/19 04:45:22;;;;;;;11.48;6.35;;;;;;;-0.64;100.00;90280.91;5014036;28;20040;-68
2022/04/19 04:50:31;;;;;;;9.95;6.18;;;;;;;-0.56;100.00;90289.31;5014077;28;20149;-68
2022/04/19 04:52:56;;;;;;;10.27;6.78;;;;;;;-0.57;100.00;90288.53;5014077;28;20104;-68
2022/04/19 04:55:23;;;;;;;12.13;8.13;;;;;;;-0.53;100.00;90286.97;5013817;28;20480;-68
2022/04/19 04:57:49;;;;;;;11.07;7.78;;;;;;;-0.52;100.00;90280.69;5013893;28;20030;-69
2022/04/19 05:00:14;;;;;;;8.52;7.07;;;;;;;-0.41;100.00;90276.28;5014147;28;20049;-69
2022/04/19 05:02:40;;;;;;;15.63;14.02;;;;;;;-0.38;100.00;90279.16;5013828;28;20045;-69
2022/04/19 05:05:05;;;;;;;9.38;8.05;;;;;;;-0.13;100.00;90295.94;4996155;28;20072;-68
2022/04/19 05:07:31;;;;;;;6.85;5.50;;;;;;;-0.17;100.00;90281.78;5013703;28;20022;-68
2022/04/19 05:09:58;;;;;;;7.35;4.40;;;;;;;-0.17;100.00;90287.03;5013765;28;20116;-68
2022/04/19 05:12:24;;;;;;;7.15;6.15;;;;;;;0.06;100.00;90288.38;5013646;28;20041;-68
2022/04/19 05:14:49;;;;;;;8.77;5.22;;;;;;;0.22;100.00;90287.31;5012683;28;20113;-69
2022/04/19 05:17:15;;;;;;;6.40;4.82;;;;;;;0.65;100.00;90299.06;5012978;28;20443;-69
2022/04/19 05:19:40;;;;;;;17.88;10.43;;;;;;;0.80;100.00;90303.50;5013547;28;20021;-70
2022/04/19 05:22:06;;;;;;;10.95;7.05;;;;;;;0.64;100.00;90292.25;5013468;28;20407;-70
2022/04/19 05:24:31;;;;;;;105.10;41.65;;;;;;;0.79;100.00;90302.72;5013128;28;20112;-70
2022/04/19 05:26:56;;;;;;;531.25;110.13;;;;;;;0.96;100.00;90297.16;5013369;28;20086;-70
2022/04/19 05:29:22;;;;;;;15.68;8.65;;;;;;;0.79;100.00;90304.50;5013391;28;20506;-70
2022/04/19 05:31:47;;;;;;;70.25;28.88;;;;;;;1.04;100.00;90299.22;5013348;28;20097;-70
2022/04/19 05:34:13;;;;;;;30.80;16.50;;;;;;;1.07;100.00;90298.69;5013182;28;20026;-70
2022/04/19 05:36:38;;;;;;;84.72;39.92;;;;;;;0.92;100.00;90305.81;5013225;28;20129;-70
2022/04/19 05:39:03;;;;;;;72.88;31.67;;;;;;;1.00;100.00;90300.03;5013182;28;20033;-70
2022/04/19 05:41:29;;;;;;;33.45;16.58;;;;;;;1.15;100.00;90299.97;5013145;28;20150;-70
2022/04/19 05:43:54;;;;;;;65.18;28.13;;;;;;;1.66;100.00;90307.63;5012961;28;20057;-70
2022/04/19 05:46:20;;;;;;;49.47;21.55;;;;;;;2.33;100.00;90312.19;5012894;28;20488;-71
2022/04/19 05:48:46;;;;;;;11.50;8.95;;;;;;;2.58;100.00;90316.47;5012750;28;20032;-69
2022/04/19 05:51:12;;;;;;;13.77;8.40;;;;;;;2.72;100.00;90313.22;5012867;28;20030;-68
2022/04/19 05:53:38;;;;;;;8.70;5.38;;;;;;;2.40;100.00;90323.19;5012988;28;20455;-68
2022/04/19 05:56:04;;;;;;;8.32;5.55;;;;;;;2.15;100.00;90325.97;5012898;28;20065;-69
2022/04/19 05:58:30;;;;;;;13.95;8.68;;;;;;;1.72;100.00;90319.66;5012786;28;20058;-70
2022/04/19 06:00:55;;;;;;;12.02;8.52;;;;;;;2.03;100.00;90334.16;5012133;28;20030;-71
2022/04/19 06:06:06;;;;;;;12.75;8.85;;;;;;;1.70;100.00;90327.78;5012846;28;20037;-70
2022/04/19 06:08:32;;;;;;;7.82;6.38;;;;;;;1.91;100.00;90333.72;5012662;28;20021;-70
2022/04/19 06:10:57;;;;;;;19.63;11.15;;;;;;;1.91;100.00;90322.47;5012689;28;20041;-70
2022/04/19 06:13:23;;;;;;;4.78;4.20;;;;;;;2.18;100.00;90332.50;5007783;28;20029;-70
2022/04/19 06:15:48;;;;;;;7.63;5.22;;;;;;;2.44;100.00;90331.28;4993471;28;20052;-72
2022/04/19 06:18:14;;;;;;;5.18;4.38;;;;;;;2.85;100.00;90325.72;4989461;28;20065;-72
2022/04/19 06:20:40;;;;;;;6.20;4.38;;;;;;;3.04;100.00;90329.19;4992691;28;20475;-71
2022/04/19 06:23:06;;;;;;;4.93;4.10;;;;;;;2.82;100.00;90331.50;4992944;28;20092;-72
2022/04/19 06:25:32;;;;;;;4.72;4.03;;;;;;;3.96;100.00;90328.97;4992308;28;20503;-71
2022/04/19 06:27:57;;;;;;;8.07;5.30;;;;;;;5.40;100.00;90337.00;4992186;28;20037;-72
2022/04/19 06:30:24;;;;;;;23.80;6.75;;;;;;;6.27;100.00;90336.91;4992566;28;20026;-72
2022/04/19 06:32:50;;;;;;;5.40;3.88;;;;;;;7.21;100.00;90333.44;4992468;28;20170;-72
2022/04/19 06:35:16;;;;;;;4.85;4.05;;;;;;;9.09;85.13;90332.72;4992229;28;20027;-73
2022/04/19 06:37:41;;;;;;;10.35;5.93;;;;;;;10.54;70.40;90334.44;4992393;28;20030;-71
2022/04/19 06:40:07;;;;;;;12.40;7.30;;;;;;;11.80;68.93;90337.81;4992560;28;20034;-74
2022/04/19 06:42:33;;;;;;;9.73;5.78;;;;;;;14.62;55.93;90321.47;4992376;28;20027;-73
2022/04/19 06:44:59;;;;;;;17.73;14.20;;;;;;;15.05;51.34;90330.47;4992169;28;20041;-73
2022/04/19 06:47:25;;;;;;;5.22;4.55;;;;;;;12.06;56.74;90317.00;4992161;28;20053;-73
2022/04/19 06:49:52;;;;;;;3.95;3.60;;;;;;;12.70;57.13;90334.22;4992270;28;20109;-71
2022/04/19 06:52:19;;;;;;;10.77;6.05;;;;;;;15.18;50.19;90344.53;4992219;28;20488;-72
2022/04/19 06:54:45;;;;;;;8.77;4.05;;;;;;;16.25;47.57;90339.34;4992027;28;20026;-74
2022/04/19 06:57:10;;;;;;;449.60;31.08;;;;;;;15.63;48.04;90349.34;4992084;28;20112;-73
2022/04/19 06:59:36;;;;;;;340.15;25.75;;;;;;;13.81;51.28;90349.63;4991768;28;20186;-73
2022/04/19 07:02:01;;;;;;;269.98;22.80;;;;;;;12.87;54.43;90348.09;4974671;28;20034;-72
2022/04/19 07:04:27;;;;;;;8.77;6.00;;;;;;;14.05;51.41;90341.47;4992006;28;20026;-71
2022/04/19 07:06:52;;;;;;;12.85;8.38;;;;;;;12.04;57.05;90345.88;4992113;28;20026;-71
2022/04/19 07:09:18;;;;;;;5.35;4.55;;;;;;;11.91;55.80;90345.06;4991920;28;20025;-72
2022/04/19 07:11:43;;;;;;;6.50;4.10;;;;;;;11.86;55.41;90349.84;4991927;28;20413;-72
2022/04/19 07:14:09;;;;;;;4.43;3.72;;;;;;;11.22;58.18;90352.91;4973924;28;20038;-71
2022/04/19 07:16:34;;;;;;;5.75;4.20;;;;;;;11.28;59.12;90346.28;4991718;28;20042;-71
2022/04/19 07:18:59;;;;;;;4.38;3.80;;;;;;;11.34;57.57;90336.97;4991531;28;20113;-73
2022/04/19 07:26:53;;;;;;;7.63;3.95;;;;;;;14.47;50.52;90327.63;4991266;28;20053;-73
2022/04/19 07:29:18;;;;;;;5.30;4.43;;;;;;;15.11;51.70;90339.78;4991364;28;20047;-73
2022/04/19 07:31:48;;;;;;;3.90;3.22;;;;;;;13.91;53.88;90340.34;4991623;28;20034;-73
2022/04/19 07:34:14;;;;;;;3.17;2.88;;;;;;;11.23;57.93;90344.59;4991509;28;20045;-72
2022/04/19 07:36:40;;;;;;;4.03;3.63;;;;;;;11.68;59.36;90338.56;4991529;28;20113;-73
2022/04/19 07:39:10;;;;;;;5.88;4.57;;;;;;;12.02;55.70;90337.44;4991803;28;20113;-72
2022/04/19 07:41:37;;;;;;;9.93;6.47;;;;;;;10.93;58.78;90349.22;4991791;28;20385;-73
2022/04/19 07:44:08;;;;;;;8.13;5.32;;;;;;;12.47;59.24;90347.25;4990932;28;20026;-72
2022/04/19 07:46:35;;;;;;;4.60;3.38;;;;;;;12.16;52.62;90329.91;4991391;28;20048;-72
2022/04/19 07:49:01;;;;;;;7.15;5.40;;;;;;;13.91;56.77;90335.75;5008689;28;20030;-72
2022/04/19 07:51:26;;;;;;;7.25;5.68;;;;;;;16.54;52.22;90346.00;5011086;28;20092;-72
2022/04/19 07:53:52;;;;;;;7.75;6.22;;;;;;;18.01;44.95;90346.97;5011094;28;20105;-72
2022/04/19 07:56:18;;;;;;;7.05;5.10;;;;;;;16.89;45.90;90335.09;4992869;28;20507;-70
2022/04/19 07:58:47;;;;;;;7.90;5.82;;;;;;;12.99;52.56;90349.97;5010474;28;20026;-69
2022/04/19 08:01:13;;;;;;;5.88;4.35;;;;;;;13.69;52.99;90347.78;5011265;28;20079;-69
2022/04/19 08:03:38;;;;;;;3.55;3.17;;;;;;;15.85;46.14;90348.59;5011021;28;20030;-72
2022/04/19 08:06:04;;;;;;;8.25;5.93;;;;;;;15.83;47.20;90340.13;5010816;28;20513;-71
2022/04/19 08:08:29;;;;;;;14.13;8.80;;;;;;;14.54;53.28;90340.41;5010917;28;20038;-71
2022/04/19 08:10:55;;;;;;;69.85;29.67;;;;;;;12.37;53.09;90337.78;5010885;28;20072;-71
2022/04/19 08:13:20;;;;;;;28.48;15.35;;;;;;;10.65;62.34;90332.97;5010485;28;20109;-72
2022/04/19 08:15:46;;;;;;;8.63;5.30;;;;;;;11.97;59.99;90334.97;5010845;28;20133;-69
2022/04/19 08:18:14;;;;;;;6.90;4.60;;;;;;;12.72;53.16;90338.09;5010773;28;20037;-71
2022/04/19 08:20:40;;;;;;;8.30;5.93;;;;;;;10.01;60.94;90337.66;5010860;28;20033;-71
2022/04/19 08:23:07;;;;;;;12.73;7.63;;;;;;;7.91;71.82;90342.50;5010695;28;20026;-70
2022/04/19 08:25:34;;;;;;;7.88;6.32;;;;;;;7.05;80.08;90334.88;5014195;28;20404;-71
2022/04/19 08:28:00;;;;;;;13.90;9.18;;;;;;;6.14;89.37;90345.63;5014002;28;20556;-71
2022/04/19 08:30:25;;;;;;;8.75;6.35;;;;;;;6.04;93.42;90343.22;5014322;28;20038;-70
2022/04/19 08:32:50;;;;;;;8.43;5.85;;;;;;;9.29;79.51;90324.09;5014294;28;20026;-70
2022/04/19 08:35:19;;;;;;;7.43;5.82;;;;;;;12.70;57.62;90344.88;5014148;28;20022;-72
2022/04/19 08:37:45;;;;;;;8.70;6.93;;;;;;;14.77;52.97;90338.63;5014265;28;20041;-70
2022/04/19 08:40:12;;;;;;;4.25;3.85;;;;;;;14.01;49.93;90334.47;5014226;28;20092;-72
2022/04/19 08:42:40;;;;;;;4.80;4.40;;;;;;;13.43;50.98;90332.19;5013769;28;20025;-72
2022/04/19 08:45:08;;;;;;;8.00;5.80;;;;;;;14.71;49.80;90341.94;5014042;28;20030;-72
2022/04/19 08:47:38;;;;;;;4.07;3.20;;;;;;;15.65;45.78;90344.38;5014065;28;20026;-70
2022/04/19 08:50:06;;;;;;;3.72;3.42;;;;;;;14.23;48.98;90333.13;5014010;28;20033;-71
2022/04/19 08:52:32;;;;;;;24.00;7.05;;;;;;;12.77;50.77;90329.09;5013968;28;20069;-71
2022/04/19 08:57:42;;;;;;;10.45;5.90;;;;;;;7.13;69.82;90352.69;5013389;28;20036;-72
2022/04/19 09:00:08;;;;;;;4.97;4.10;;;;;;;7.93;68.65;90342.19;5013627;28;20033;-72
2022/04/19 09:02:37;;;;;;;7.03;4.82;;;;;;;9.63;64.55;90327.00;5013764;28;20033;-72
2022/04/19 09:05:22;;;;;;;5.85;4.85;;;;;;;12.32;57.94;90346.03;5013656;28;20053;-74
2022/04/19 09:07:50;;;;;;;4.63;4.22;;;;;;;10.38;58.06;90347.50;5013793;28;20431;-73
2022/04/19 09:10:28;;;;;;;11.63;6.40;;;;;;;12.66;55.84;90349.34;5013676;28;20034;-72
2022/04/19 09:13:09;;;;;;;5.72;5.00;;;;;;;14.72;49.64;90351.53;5012911;28;20029;-71
2022/04/19 09:15:45;;;;;;;3.80;3.50;;;;;;;10.93;53.20;90357.19;5013455;28;20032;-71
2022/04/19 09:18:30;;;;;;;4.50;4.10;;;;;;;9.29;56.41;90355.16;5013524;28;20590;-72
2022/04/19 09:21:06;;;;;;;5.28;4.53;;;;;;;8.94;63.34;90352.53;5013422;28;20147;-71
2022/04/19 09:23:33;;;;;;;5.28;4.78;;;;;;;9.45;61.16;90353.56;4995791;28;20030;-69
2022/04/19 09:26:08;;;;;;;4.28;3.60;;;;;;;11.95;52.17;90337.97;5012890;28;20056;-74
2022/04/19 09:28:34;;;;;;;9.05;5.63;;;;;;;11.14;59.09;90357.19;5013387;28;20034;-73
2022/04/19 09:31:01;;;;;;;13.82;4.60;;;;;;;12.47;53.36;90349.91;5013297;28;20037;-75
2022/04/19 09:33:28;;;;;;;5.82;3.85;;;;;;;14.04;47.92;90353.31;5014572;28;20038;-73
2022/04/19 09:35:56;;;;;;;10.90;7.03;;;;;;;14.54;45.56;90343.09;5012590;28;20038;-75
2022/04/19 09:38:41;;;;;;;4.75;4.07;;;;;;;16.51;42.57;90354.00;5014372;28;20030;-76
2022/04/19 09:41:30;;;;;;;8.00;4.72;;;;;;;15.07;43.72;90355.00;5012812;28;20030;-72
2022/04/19 09:44:11;;;;;;;4.05;3.65;;;;;;;15.20;44.29;90345.72;5003892;28;20042;-75
2022/04/19 09:46:36;;;;;;;3.90;3.60;;;;;;;16.00;43.37;90356.94;5014059;28;20028;-74
2022/04/19 09:49:03;;;;;;;5.60;4.05;;;;;;;17.48;39.34;90351.63;5016663;28;20033;-75
2022/04/19 09:51:33;;;;;;;5.43;4.07;;;;;;;18.17;36.66;90361.00;5014623;28;20037;-73
2022/04/19 09:53:59;;;;;;;4.90;3.97;;;;;;;16.99;36.68;90353.25;5016243;28;20068;-75
2022/04/19 09:56:33;;;;;;;10.57;5.47;;;;;;;17.32;41.55;90352.59;5013953;28;20030;-73
2022/04/19 09:59:02;;;;;;;15.75;4.07;;;;;;;17.10;40.68;90344.59;5013797;28;20037;-74
2022/04/19 10:09:36;;;;;;;12.90;4.57;;;;;;;7.74;82.26;90360.97;5015228;28;20554;-75
2022/04/19 10:12:04;;;;;;;17.58;5.28;;;;;;;9.84;93.25;90357.09;5012984;28;20033;-75
2022/04/19 10:14:30;;;;;;;6.80;5.00;;;;;;;9.63;73.41;90338.41;5012664;28;20036;-69
2022/04/19 10:16:57;;;;;;;11.80;6.00;;;;;;;9.06;74.73;90343.94;5012574;28;20073;-68
2022/04/19 10:19:23;;;;;;;14.50;5.80;;;;;;;8.93;79.96;90347.53;5012341;28;20026;-74
2022/04/19 10:21:51;;;;;;;10.48;6.00;;;;;;;9.94;75.54;90334.69;5012335;28;20044;-75
2022/04/19 10:24:17;;;;;;;17.02;10.20;;;;;;;12.33;64.78;90344.13;5016850;28;20040;-75
2022/04/19 10:26:53;;;;;;;49.53;7.47;;;;;;;13.95;52.67;90314.47;4995890;28;20523;-74
2022/04/19 10:29:22;;;;;;;44.67;6.07;;;;;;;16.01;48.11;90323.59;5012425;28;20038;-74
2022/04/19 10:32:01;;;;;;;32.60;10.77;;;;;;;11.73;54.36;90311.69;4994511;28;20419;-73
2022/04/19 10:34:34;;;;;;;15.65;5.53;;;;;;;9.48;62.43;90352.97;5012020;28;20041;-73
2022/04/19 10:37:13;;;;;;;14.35;7.30;;;;;;;8.00;71.67;90351.25;5012029;28;20046;-73
2022/04/19 10:39:48;;;;;;;52.83;10.20;;;;;;;9.07;70.95;90342.09;5011985;28;20515;-74
2022/04/19 10:42:33;;;;;;;22.90;6.30;;;;;;;9.11;70.68;90343.78;5011496;28;20042;-73
2022/04/19 10:45:14;;;;;;;15.00;6.65;;;;;;;8.00;74.65;90347.81;5012231;28;20508;-76
2022/04/19 10:48:03;;;;;;;15.63;5.35;;;;;;;7.78;80.98;90325.63;5011767;28;20113;-72
2022/04/19 10:50:33;;;;;;;13.02;4.43;;;;;;;7.59;84.07;90345.47;4999858;28;20535;-76
2022/04/19 10:53:03;;;;;;;13.68;7.10;;;;;;;6.97;86.47;90359.41;5011866;28;20041;-74
2022/04/19 10:56:01;;;;;;;9.32;4.72;;;;;;;8.30;82.30;90352.28;5011185;28;20060;-77
2022/04/19 10:58:41;;;;;;;12.98;3.20;;;;;;;9.10;74.64;90352.84;5011261;28;20132;-72
2022/04/19 11:01:28;;;;;;;8.55;4.38;;;;;;;12.02;67.13;90348.09;5011961;28;20042;-73
2022/04/19 11:03:54;;;;;;;4.88;4.10;;;;;;;15.54;49.74;90341.47;5011735;28;20462;-74
2022/04/19 11:06:38;;;;;;;7.68;6.15;;;;;;;16.20;45.42;90339.66;4993852;28;20034;-73
2022/04/19 11:09:14;;;;;;;5.32;4.03;;;;;;;18.18;38.62;90340.22;5011497;28;20073;-72
2022/04/19 11:12:08;;;;;;;5.88;3.78;;;;;;;17.06;38.23;90305.00;5010998;28;20482;-71
2022/04/19 11:14:40;;;;;;;7.07;2.83;;;;;;;17.79;35.52;90337.06;4993887;28;20527;-72
2022/04/19 11:17:29;;;;;;;7.50;4.57;;;;;;;16.38;37.29;90346.09;5011401;28;20507;-70
2022/04/19 11:20:09;;;;;;;3.88;3.53;;;;;;;12.49;42.48;90350.34;5011314;28;20061;-74
2022/04/19 11:22:54;;;;;;;5.90;3.35;;;;;;;11.06;48.55;90353.50;5011280;28;20431;-74
2022/04/19 11:25:43;;;;;;;6.88;5.07;;;;;;;10.36;49.44;90348.94;5010545;28;20082;-73
2022/04/19 11:28:11;;;;;;;6.57;4.95;;;;;;;8.38;54.62;90353.41;5011195;28;20128;-72
2022/04/19 11:30:57;;;;;;;11.27;5.05;;;;;;;7.89;59.13;90357.13;5011252;28;20108;-72
2022/04/19 11:33:25;;;;;;;5.35;4.70;;;;;;;7.63;58.77;90367.59;5009670;28;20045;-72
2022/04/19 11:36:15;;;;;;;4.50;4.07;;;;;;;7.53;62.80;90352.75;5011041;28;20077;-72
2022/04/19 11:38:47;;;;;;;11.52;7.32;;;;;;;9.49;62.73;90362.50;5011136;28;20116;-74
2022/04/19 11:46:45;;;;;;;10.77;4.65;;;;;;;8.78;56.47;90372.66;5010994;28;20426;-69
2022/04/19 11:49:25;;;;;;;6.90;5.65;;;;;;;8.62;60.52;90372.31;5011174;28;20042;-71
2022/04/19 11:51:52;;;;;;;14.88;6.63;;;;;;;7.87;66.25;90373.31;4992957;28;20033;-71
2022/04/19 11:54:26;;;;;;;5.47;4.72;;;;;;;7.31;66.85;90374.75;5010314;28;20030;-70
2022/04/19 11:56:56;;;;;;;6.03;5.40;;;;;;;6.84;71.01;90376.88;5010989;28;20038;-71
2022/04/19 11:59:26;;;;;;;7.88;6.88;;;;;;;7.58;72.72;90371.16;5012902;28;20133;-71
2022/04/19 12:01:52;;;;;;;10.48;6.85;;;;;;;6.47;77.14;90367.41;5014837;28;20502;-71
2022/04/19 12:04:18;;;;;;;10.63;8.95;;;;;;;6.47;85.93;90380.63;5014727;28;20118;-71
2022/04/19 12:06:57;;;;;;;7.10;5.95;;;;;;;6.61;87.59;90367.34;5014705;28;20503;-71